createdAt,value
2018-02-13T00:02:00.422Z,101211
2018-02-13T00:04:28.581Z,101219
2018-02-13T00:06:56.729Z,101220
2018-02-13T00:09:25.864Z,101218
2018-02-13T00:11:54.043Z,101221
2018-02-13T00:14:22.220Z,101216
2018-02-13T00:16:51.175Z,101222
2018-02-13T00:19:19.459Z,101220
2018-02-13T00:21:47.758Z,101221
2018-02-13T00:24:15.946Z,101221
2018-02-13T00:26:44.119Z,101219
2018-02-13T00:29:12.396Z,101221
2018-02-13T00:31:40.784Z,101229
2018-02-13T00:34:08.949Z,101227
2018-02-13T00:36:37.211Z,101227
2018-02-13T00:39:05.957Z,101225
2018-02-13T00:41:34.309Z,101239
2018-02-13T00:44:02.805Z,101230
2018-02-13T00:46:31.908Z,101233
2018-02-13T00:49:00.154Z,101236
2018-02-13T00:51:28.426Z,101233
2018-02-13T00:53:56.599Z,101234
2018-02-13T00:56:24.851Z,101232
2018-02-13T00:58:53.035Z,101233
2018-02-13T01:01:21.415Z,101232
2018-02-13T01:03:49.678Z,101231
2018-02-13T01:06:17.917Z,101227
2018-02-13T01:08:46.123Z,101219
2018-02-13T01:11:14.412Z,101227
2018-02-13T01:13:43.418Z,101225
2018-02-13T01:16:12.416Z,101234
2018-02-13T01:18:40.571Z,101226
2018-02-13T01:21:08.805Z,101227
2018-02-13T01:23:36.970Z,101228
2018-02-13T01:26:05.187Z,101229
2018-02-13T01:28:33.339Z,101231
2018-02-13T01:31:01.512Z,101234
2018-02-13T01:33:30.571Z,101229
2018-02-13T01:35:59.549Z,101222
2018-02-13T01:38:28.512Z,101226
2018-02-13T01:40:57.020Z,101229
2018-02-13T01:43:26.192Z,101224
2018-02-13T01:45:54.399Z,101228
2018-02-13T01:48:25.184Z,101231
2018-02-13T01:50:53.417Z,101223
2018-02-13T01:53:22.645Z,101230
2018-02-13T01:55:50.875Z,101232
2018-02-13T01:58:19.841Z,101233
2018-02-13T02:00:48.555Z,101229
2018-02-13T02:03:17.547Z,101226
2018-02-13T02:05:46.613Z,101230
2018-02-13T02:08:14.810Z,101228
2018-02-13T02:10:43.751Z,101231
2018-02-13T02:13:12.334Z,101225
2018-02-13T02:15:40.541Z,101228
2018-02-13T02:18:08.745Z,101226
2018-02-13T02:20:38.190Z,101228
2018-02-13T02:23:06.398Z,101228
2018-02-13T02:25:34.598Z,101229
2018-02-13T02:28:03.111Z,101239
2018-02-13T02:30:31.314Z,101231
2018-02-13T02:32:59.523Z,101228
2018-02-13T02:35:28.159Z,101229
2018-02-13T02:37:56.409Z,101232
2018-02-13T02:40:24.584Z,101244
2018-02-13T02:43:05.662Z,101238
2018-02-13T02:45:34.659Z,101234
2018-02-13T02:48:03.184Z,101232
2018-02-13T02:50:32.217Z,101230
2018-02-13T02:53:00.420Z,101231
2018-02-13T02:55:28.615Z,101229
2018-02-13T02:57:56.890Z,101226
2018-02-13T03:00:25.647Z,101230
2018-02-13T03:02:53.855Z,101228
2018-02-13T03:05:22.812Z,101227
2018-02-13T03:07:51.167Z,101229
2018-02-13T03:10:19.340Z,101222
2018-02-13T03:12:47.508Z,101228
2018-02-13T03:15:15.772Z,101229
2018-02-13T03:17:44.798Z,101233
2018-02-13T03:20:12.997Z,101230
2018-02-13T03:22:41.927Z,101223
2018-02-13T03:25:11.880Z,101231
2018-02-13T03:27:40.107Z,101233
2018-02-13T03:30:09.149Z,101234
2018-02-13T03:32:37.377Z,101230
2018-02-13T03:35:06.327Z,101239
2018-02-13T03:37:34.536Z,101242
2018-02-13T03:40:03.492Z,101233
2018-02-13T03:42:31.693Z,101235
2018-02-13T03:45:00.691Z,101239
2018-02-13T03:47:29.655Z,101223
2018-02-13T03:49:57.850Z,101231
2018-02-13T03:52:27.125Z,101233
2018-02-13T03:54:55.428Z,101227
2018-02-13T03:57:24.406Z,101224
2018-02-13T03:59:53.371Z,101220
2018-02-13T04:02:21.542Z,101226
2018-02-13T04:04:49.742Z,101225
2018-02-13T04:07:17.909Z,101226
2018-02-13T04:09:46.170Z,101228
2018-02-13T04:12:14.363Z,101229
2018-02-13T04:14:42.536Z,101231
2018-02-13T04:17:10.710Z,101228
2018-02-13T04:19:39.420Z,101233
2018-02-13T04:22:08.368Z,101232
2018-02-13T04:24:36.542Z,101231
2018-02-13T04:27:04.769Z,101228
2018-02-13T04:29:32.942Z,101234
2018-02-13T04:32:01.185Z,101226
2018-02-13T04:34:29.601Z,101232
2018-02-13T04:36:57.814Z,101224
2018-02-13T04:39:26.020Z,101234
2018-02-13T04:41:54.985Z,101224
2018-02-13T04:44:23.243Z,101234
2018-02-13T04:46:51.431Z,101235
2018-02-13T04:49:19.656Z,101230
2018-02-13T04:51:47.828Z,101227
2018-02-13T04:54:16.611Z,101230
2018-02-13T04:56:44.783Z,101226
2018-02-13T04:59:12.971Z,101227
2018-02-13T05:01:41.391Z,101233
2018-02-13T05:04:09.586Z,101223
2018-02-13T05:06:38.230Z,101224
2018-02-13T05:09:06.405Z,101229
2018-02-13T05:11:34.612Z,101224
2018-02-13T05:14:02.820Z,101227
2018-02-13T05:16:31.024Z,101231
2018-02-13T05:18:59.297Z,101224
2018-02-13T05:21:27.511Z,101226
2018-02-13T05:23:56.490Z,101226
2018-02-13T05:26:24.705Z,101226
2018-02-13T05:28:52.956Z,101223
2018-02-13T05:31:21.942Z,101232
2018-02-13T05:33:50.154Z,101233
2018-02-13T05:36:18.308Z,101236
2018-02-13T05:38:47.287Z,101228
2018-02-13T05:41:16.271Z,101233
2018-02-13T05:43:45.687Z,101228
2018-02-13T05:46:15.351Z,101216
2018-02-13T05:48:44.336Z,101219
2018-02-13T05:51:12.610Z,101222
2018-02-13T05:53:41.069Z,101222
2018-02-13T05:56:09.267Z,101223
2018-02-13T05:58:37.528Z,101218
2018-02-13T06:01:05.749Z,101223
2018-02-13T06:03:34.750Z,101229
2018-02-13T06:06:03.720Z,101222
2018-02-13T06:08:31.965Z,101228
2018-02-13T06:11:00.367Z,101239
2018-02-13T06:23:20.119Z,101236
2018-02-13T06:25:50.924Z,101239
2018-02-13T06:28:27.150Z,101238
2018-02-13T06:30:59.733Z,101241
2018-02-13T06:33:28.233Z,101237
2018-02-13T06:39:18.472Z,101248
2018-02-13T06:45:53.677Z,101249
2018-02-13T06:51:50.894Z,101255
2018-02-13T06:54:19.286Z,101265
2018-02-13T06:56:48.606Z,101260
2018-02-13T06:59:17.015Z,101259
2018-02-13T07:01:45.430Z,101257
2018-02-13T07:04:18.747Z,101261
2018-02-13T07:06:47.061Z,101263
2018-02-13T07:09:16.228Z,101262
2018-02-13T07:25:18.190Z,101273
2018-02-13T07:28:26.719Z,101291
2018-02-13T07:31:02.331Z,101291
2018-02-13T08:15:59.270Z,101307
2018-02-13T08:21:24.074Z,101302
2018-02-13T08:23:55.718Z,101293
2018-02-13T08:26:25.361Z,101287
2018-02-13T08:29:03.784Z,101289
2018-02-13T08:31:36.975Z,101287
2018-02-13T08:34:09.932Z,101292
2018-02-13T08:36:39.191Z,101282
2018-02-13T08:39:08.734Z,101280
2018-02-13T08:41:39.613Z,101285
2018-02-13T08:44:11.750Z,101283
2018-02-13T08:49:31.728Z,101288
2018-02-13T08:52:00.011Z,101285
2018-02-13T08:54:29.069Z,101289
2018-02-13T08:57:05.665Z,101279
2018-02-13T08:59:33.994Z,101284
2018-02-13T09:02:02.436Z,101284
2018-02-13T09:04:30.886Z,101291
2018-02-13T09:07:01.571Z,101283
2018-02-13T09:09:30.206Z,101282
2018-02-13T09:11:58.715Z,101287
2018-02-13T09:14:27.027Z,101288
2018-02-13T09:16:55.979Z,101289
2018-02-13T09:19:24.395Z,101286
2018-02-13T09:21:52.566Z,101278
2018-02-13T09:24:20.845Z,101278
2018-02-13T09:26:50.426Z,101274
2018-02-13T09:29:19.107Z,101278
2018-02-13T09:31:48.291Z,101266
2018-02-13T09:34:17.328Z,101271
2018-02-13T09:36:46.405Z,101279
2018-02-13T09:39:15.179Z,101278
2018-02-13T09:41:43.474Z,101272
2018-02-13T09:44:11.804Z,101271
2018-02-13T09:46:41.361Z,101285
2018-02-13T09:49:10.288Z,101276
2018-02-13T09:51:39.667Z,101275
2018-02-13T09:54:07.940Z,101274
2018-02-13T09:56:41.779Z,101266
2018-02-13T09:59:23.136Z,101272
2018-02-13T10:01:51.762Z,101272
2018-02-13T10:04:24.031Z,101272
2018-02-13T10:06:58.401Z,101271
2018-02-13T10:09:43.174Z,101266
2018-02-13T10:12:20.934Z,101265
2018-02-13T10:15:22.454Z,101274
2018-02-13T10:20:28.899Z,101265
2018-02-13T10:23:02.610Z,101267
2018-02-13T10:25:33.547Z,101266
2018-02-13T10:28:05.061Z,101262
2018-02-13T10:30:34.151Z,101269
2018-02-13T10:33:03.971Z,101269
2018-02-13T10:35:32.372Z,101267
2018-02-13T10:38:00.827Z,101275
2018-02-13T10:40:31.855Z,101271
2018-02-13T10:43:00.123Z,101271
2018-02-13T10:45:28.400Z,101266
2018-02-13T10:47:56.721Z,101277
2018-02-13T10:50:25.109Z,101257
2018-02-13T10:52:56.634Z,101263
2018-02-13T10:55:25.162Z,101267
2018-02-13T10:57:54.281Z,101274
2018-02-13T11:00:22.822Z,101266
2018-02-13T11:02:51.038Z,101266
2018-02-13T11:05:19.446Z,101257
2018-02-13T11:07:48.552Z,101259
2018-02-13T11:10:16.739Z,101248
2018-02-13T11:12:46.654Z,101255
2018-02-13T11:15:15.297Z,101256
2018-02-13T11:17:43.598Z,101256
2018-02-13T11:20:11.881Z,101244
2018-02-13T11:22:41.494Z,101249
2018-02-13T11:25:10.499Z,101255
2018-02-13T11:27:39.532Z,101249
2018-02-13T11:30:08.311Z,101253
2018-02-13T11:32:36.485Z,101241
2018-02-13T11:35:04.709Z,101241
2018-02-13T11:37:32.927Z,101246
2018-02-13T11:40:02.028Z,101236
2018-02-13T11:42:31.843Z,101242
2018-02-13T11:45:00.264Z,101235
2018-02-13T11:47:31.269Z,101236
2018-02-13T11:50:01.355Z,101235
2018-02-13T11:52:32.057Z,101243
2018-02-13T11:55:02.243Z,101236
2018-02-13T12:00:31.711Z,101233
2018-02-13T12:03:01.316Z,101224
2018-02-13T12:05:29.662Z,101229
2018-02-13T12:07:59.356Z,101227
2018-02-13T12:10:34.740Z,101229
2018-02-13T12:13:04.223Z,101220
2018-02-13T12:15:45.636Z,101229
2018-02-13T12:18:14.152Z,101229
2018-02-13T12:20:44.004Z,101222
2018-02-13T12:23:14.131Z,101217
2018-02-13T12:25:44.482Z,101214
2018-02-13T12:28:13.635Z,101216
2018-02-13T12:30:42.392Z,101210
2018-02-13T12:33:10.578Z,101204
2018-02-13T12:35:38.952Z,101204
2018-02-13T12:38:07.261Z,101204
2018-02-13T12:40:35.935Z,101208
2018-02-13T12:45:57.573Z,101200
2018-02-13T12:48:25.889Z,101206
2018-02-13T12:54:14.288Z,101195
2018-02-13T12:56:42.676Z,101196
2018-02-13T12:59:11.102Z,101194
2018-02-13T13:01:40.322Z,101185
2018-02-13T13:04:09.791Z,101188
2018-02-13T13:06:38.228Z,101196
2018-02-13T13:09:06.773Z,101188
2018-02-13T13:11:35.803Z,101186
2018-02-13T13:14:04.199Z,101190
2018-02-13T13:16:33.205Z,101181
2018-02-13T13:19:01.524Z,101179
2018-02-13T13:21:29.764Z,101180
2018-02-13T13:23:58.029Z,101184
2018-02-13T13:26:26.282Z,101176
2018-02-13T13:28:54.874Z,101178
2018-02-13T13:31:25.570Z,101183
2018-02-13T13:33:54.661Z,101178
2018-02-13T13:36:23.856Z,101172
2018-02-13T13:38:52.852Z,101170
2018-02-13T13:41:21.224Z,101174
2018-02-13T13:43:51.209Z,101178
2018-02-13T13:46:19.416Z,101168
2018-02-13T13:48:49.126Z,101168
2018-02-13T13:51:18.111Z,101164
2018-02-13T13:53:48.612Z,101164
2018-02-13T13:56:16.825Z,101165
2018-02-13T13:58:45.106Z,101171
2018-02-13T14:01:13.313Z,101165
2018-02-13T14:03:41.479Z,101166
2018-02-13T14:06:09.707Z,101164
2018-02-13T14:08:38.848Z,101161
2018-02-13T14:11:07.281Z,101163
2018-02-13T14:13:36.321Z,101166
2018-02-13T14:16:05.208Z,101166
2018-02-13T14:18:36.928Z,101164
2018-02-13T14:21:06.612Z,101164
2018-02-13T14:23:34.830Z,101164
2018-02-13T14:26:03.019Z,101160
2018-02-13T14:28:31.981Z,101156
2018-02-13T14:31:01.018Z,101165
2018-02-13T14:33:29.622Z,101167
2018-02-13T14:35:57.891Z,101164
2018-02-13T14:38:26.050Z,101171
2018-02-13T14:40:54.867Z,101166
2018-02-13T14:43:23.030Z,101163
2018-02-13T14:45:51.489Z,101160
2018-02-13T14:48:21.771Z,101172
2018-02-13T14:50:50.053Z,101164
2018-02-13T14:53:18.467Z,101172
2018-02-13T14:55:46.789Z,101172
2018-02-13T14:58:15.385Z,101175
2018-02-13T15:00:43.708Z,101173
2018-02-13T15:03:12.021Z,101172
2018-02-13T15:05:40.433Z,101183
2018-02-13T15:08:08.862Z,101175
2018-02-13T15:10:37.190Z,101178
2018-02-13T15:13:05.966Z,101180
2018-02-13T15:15:34.951Z,101179
2018-02-13T15:18:08.628Z,101186
2018-02-13T15:20:38.315Z,101185
2018-02-13T15:23:06.644Z,101186
2018-02-13T15:25:34.984Z,101187
2018-02-13T15:28:03.243Z,101185
2018-02-13T15:30:32.288Z,101193
2018-02-13T15:33:00.551Z,101194
2018-02-13T15:35:29.909Z,101192
2018-02-13T15:37:58.101Z,101200
2018-02-13T15:40:26.365Z,101197
2018-02-13T15:42:54.553Z,101199
2018-02-13T15:45:22.779Z,101196
2018-02-13T15:47:51.194Z,101204
2018-02-13T15:50:19.428Z,101213
2018-02-13T15:52:47.744Z,101208
2018-02-13T15:55:15.979Z,101204
2018-02-13T15:57:44.247Z,101213
2018-02-13T16:00:12.434Z,101208
2018-02-13T16:02:47.720Z,101207
2018-02-13T16:05:15.981Z,101209
2018-02-13T16:07:44.146Z,101214
2018-02-13T16:10:12.315Z,101216
2018-02-13T16:12:41.530Z,101215
2018-02-13T16:18:21.907Z,101223
2018-02-13T16:20:58.588Z,101223
2018-02-13T16:23:26.924Z,101218
2018-02-13T16:25:55.873Z,101229
2018-02-13T16:28:30.089Z,101223
2018-02-13T16:31:00.423Z,101225
2018-02-13T16:33:29.886Z,101233
2018-02-13T16:35:59.266Z,101228
2018-02-13T16:38:27.532Z,101231
2018-02-13T16:40:57.537Z,101235
2018-02-13T16:43:27.510Z,101237
2018-02-13T16:45:56.336Z,101246
2018-02-13T16:48:25.402Z,101245
2018-02-13T16:50:53.696Z,101244
2018-02-13T16:53:21.926Z,101238
2018-02-13T16:55:56.121Z,101241
2018-02-13T16:58:24.862Z,101237
2018-02-13T17:00:53.325Z,101249
2018-02-13T17:03:21.672Z,101241
2018-02-13T17:05:49.984Z,101248
2018-02-13T17:08:18.174Z,101253
2018-02-13T17:14:01.296Z,101256
2018-02-13T17:30:13.804Z,101266
2018-02-13T17:43:27.805Z,101269
2018-02-13T17:46:00.404Z,101267
2018-02-13T17:51:35.253Z,101273
2018-02-13T17:54:03.798Z,101277
2018-02-13T17:56:32.166Z,101271
2018-02-13T18:06:34.348Z,101290
2018-02-13T18:20:35.737Z,101302
2018-02-13T18:32:05.407Z,101293
2018-02-13T18:34:35.757Z,101307
2018-02-13T18:37:06.567Z,101312
2018-02-13T18:39:35.053Z,101309
2018-02-13T18:42:15.947Z,101310
2018-02-13T18:45:44.946Z,101314
2018-02-13T18:51:18.180Z,101308
2018-02-13T18:53:57.377Z,101314
2018-02-13T18:56:26.623Z,101321
2018-02-13T18:59:36.947Z,101315
2018-02-13T19:02:05.515Z,101322
2018-02-13T19:04:34.865Z,101321
2018-02-13T19:07:36.420Z,101319
2018-02-13T19:12:41.311Z,101326
2018-02-13T19:15:11.892Z,101331
2018-02-13T19:17:40.114Z,101324
2018-02-13T19:20:09.792Z,101326
2018-02-13T19:22:38.991Z,101326
2018-02-13T19:25:11.404Z,101329
2018-02-13T19:27:39.923Z,101329
2018-02-13T19:30:08.112Z,101337
2018-02-13T19:32:36.726Z,101333
2018-02-13T19:35:06.715Z,101327
2018-02-13T19:37:35.102Z,101336
2018-02-13T19:40:03.318Z,101332
2018-02-13T19:42:32.276Z,101335
2018-02-13T19:45:00.481Z,101336
2018-02-13T19:47:29.965Z,101332
2018-02-13T19:49:59.627Z,101339
2018-02-13T19:52:29.161Z,101330
2018-02-13T20:01:21.900Z,101347
2018-02-13T20:03:50.297Z,101348
2018-02-13T20:06:19.860Z,101344
2018-02-13T20:09:03.990Z,101356
2018-02-13T20:11:35.582Z,101352
2018-02-13T20:14:04.039Z,101360
2018-02-13T20:16:33.343Z,101369
2018-02-13T20:19:02.782Z,101363
2018-02-13T20:21:33.489Z,101361
2018-02-13T20:24:02.700Z,101366
2018-02-13T20:40:35.222Z,101389
2018-02-13T20:43:08.198Z,101376
2018-02-13T20:45:36.992Z,101385
2018-02-13T20:48:06.508Z,101381
2018-02-13T20:50:35.178Z,101379
2018-02-13T20:53:26.948Z,101380
2018-02-13T20:55:55.266Z,101384
2018-02-13T20:58:25.047Z,101376
2018-02-13T21:06:16.313Z,101392
2018-02-13T21:08:45.816Z,101391
2018-02-13T21:11:16.986Z,101391
2018-02-13T21:13:47.212Z,101401
2018-02-13T21:16:18.792Z,101390
2018-02-13T21:22:33.203Z,101398
2018-02-13T21:25:36.804Z,101396
2018-02-13T21:28:05.221Z,101402
2018-02-13T21:30:59.108Z,101397
2018-02-13T21:33:27.525Z,101403
2018-02-13T21:36:01.348Z,101395
2018-02-13T21:41:41.313Z,101415
2018-02-13T21:44:10.367Z,101410
2018-02-13T21:46:40.542Z,101409
2018-02-13T21:52:12.527Z,101412
2018-02-13T21:54:46.682Z,101410
2018-02-13T21:57:22.880Z,101414
2018-02-13T21:59:57.024Z,101408
2018-02-13T22:02:26.336Z,101414
2018-02-13T22:08:05.770Z,101413
2018-02-13T22:21:39.297Z,101419
2018-02-13T22:24:11.962Z,101420
2018-02-13T22:26:40.879Z,101427
2018-02-13T22:29:18.890Z,101427
2018-02-13T22:31:47.610Z,101422
2018-02-13T22:34:17.464Z,101430
2018-02-13T22:37:03.060Z,101423
2018-02-13T22:39:31.379Z,101425
2018-02-13T22:42:00.690Z,101432
2018-02-13T22:44:29.643Z,101435
2018-02-13T22:47:04.942Z,101423
2018-02-13T22:49:33.712Z,101436
2018-02-13T22:52:03.582Z,101437
2018-02-13T22:54:40.378Z,101435
2018-02-13T22:57:12.630Z,101439
2018-02-13T22:59:42.896Z,101435
2018-02-13T23:02:13.530Z,101434
2018-02-13T23:04:47.517Z,101441
2018-02-13T23:07:20.462Z,101442
2018-02-13T23:09:48.781Z,101444
2018-02-13T23:12:20.131Z,101438
2018-02-13T23:14:48.522Z,101445
2018-02-13T23:17:39.068Z,101450
2018-02-13T23:20:08.549Z,101448
2018-02-13T23:22:48.224Z,101450
2018-02-13T23:28:25.242Z,101442
2018-02-13T23:33:29.140Z,101450
2018-02-13T23:35:58.453Z,101455
2018-02-13T23:38:29.017Z,101463
2018-02-13T23:40:59.929Z,101456
2018-02-13T23:43:28.240Z,101456
2018-02-13T23:46:00.760Z,101454
2018-02-13T23:48:31.366Z,101457
2018-02-13T23:51:19.198Z,101462
2018-02-13T23:53:49.093Z,101466
2018-02-13T23:56:17.693Z,101468
2018-02-13T23:58:47.000Z,101465
